Time;durP1;ratioP1;P1;durP2;ratioP2;P2;SDS_P1;SDS_P2;PMS_P1;PMS_P2;Temp;Humidity;BMP_temperature;BMP_pressure;BME280_temperature;BME280_humidity;BME280_pressure;Samples;Min_cycle;Max_cycle;Signal;HPM_P1;HPM_P2
2022/03/16 00:01:55;;;;;;;12.45;8.48;;;5.10;80.60;;;;;;5037321;28;20467;-78
2022/03/16 00:04:21;;;;;;;11.30;7.47;;;5.10;80.60;;;;;;5052299;28;20099;-78
2022/03/16 00:06:46;;;;;;;13.00;7.93;;;5.00;80.70;;;;;;5028708;28;20055;-80
2022/03/16 00:09:12;;;;;;;10.43;7.70;;;5.00;80.70;;;;;;5032673;28;20033;-79
2022/03/16 00:11:37;;;;;;;11.70;8.25;;;4.90;80.80;;;;;;5050124;28;20037;-77
2022/03/16 00:14:03;;;;;;;13.52;8.52;;;4.90;80.80;;;;;;5028372;28;20024;-79
2022/03/16 00:16:28;;;;;;;13.65;8.00;;;4.90;80.90;;;;;;5064723;28;20094;-79
2022/03/16 00:18:54;;;;;;;13.25;7.88;;;4.80;80.80;;;;;;5053405;28;20033;-79
2022/03/16 00:21:19;;;;;;;10.95;7.60;;;4.80;80.90;;;;;;5028612;28;20021;-78
2022/03/16 00:23:45;;;;;;;14.80;8.68;;;4.80;80.90;;;;;;5052269;28;20036;-78
2022/03/16 00:26:11;;;;;;;11.40;7.63;;;4.80;81.00;;;;;;5054608;28;20037;-78
2022/03/16 00:28:36;;;;;;;12.82;8.57;;;4.80;81.00;;;;;;5045506;28;20045;-78
2022/03/16 00:31:05;;;;;;;11.90;7.85;;;4.70;80.90;;;;;;5046306;28;20074;-77
2022/03/16 00:33:30;;;;;;;14.80;8.45;;;4.70;81.00;;;;;;5054850;28;20179;-79
2022/03/16 00:35:56;;;;;;;14.55;8.57;;;4.70;80.90;;;;;;5049922;28;20037;-78
2022/03/16 00:38:21;;;;;;;13.35;8.48;;;4.70;81.00;;;;;;5053627;28;20105;-77
2022/03/16 00:40:47;;;;;;;11.10;7.60;;;4.70;81.00;;;;;;5035063;28;20076;-78
2022/03/16 00:43:13;;;;;;;10.38;6.93;;;4.60;81.00;;;;;;5051188;28;20032;-78
2022/03/16 00:45:39;;;;;;;11.40;7.22;;;4.60;81.10;;;;;;5044296;28;20042;-77
2022/03/16 00:48:04;;;;;;;12.25;7.32;;;4.60;81.10;;;;;;5047853;28;20131;-78
2022/03/16 00:50:30;;;;;;;10.88;6.68;;;4.50;81.10;;;;;;5045701;28;20052;-79
2022/03/16 00:52:56;;;;;;;10.40;7.55;;;4.50;81.10;;;;;;5011121;28;20033;-79
2022/03/16 00:55:21;;;;;;;10.52;7.15;;;4.50;81.10;;;;;;5034657;28;20095;-79
2022/03/16 00:57:47;;;;;;;11.85;7.32;;;4.50;81.10;;;;;;5034353;28;20043;-80
2022/03/16 01:00:13;;;;;;;10.65;7.22;;;4.40;81.10;;;;;;5037866;28;20084;-79
2022/03/16 01:02:38;;;;;;;9.77;7.10;;;4.40;81.10;;;;;;5051697;28;20041;-79
2022/03/16 01:05:05;;;;;;;10.57;7.10;;;4.40;81.20;;;;;;5032450;28;20037;-79
2022/03/16 01:07:30;;;;;;;13.48;8.60;;;4.40;81.20;;;;;;5044997;28;20649;-80
2022/03/16 01:09:56;;;;;;;12.52;8.43;;;4.40;81.30;;;;;;5051172;28;20037;-79
2022/03/16 01:12:21;;;;;;;11.82;7.45;;;4.40;81.30;;;;;;5051206;28;20052;-78
2022/03/16 01:14:47;;;;;;;13.55;7.93;;;4.40;81.30;;;;;;5048386;28;20100;-78
2022/03/16 01:17:12;;;;;;;11.15;7.60;;;4.40;81.30;;;;;;5055451;28;20052;-79
2022/03/16 01:19:38;;;;;;;10.35;7.00;;;4.30;81.30;;;;;;5055239;28;20068;-79
2022/03/16 01:22:04;;;;;;;10.07;6.97;;;4.30;81.30;;;;;;5031965;28;20542;-78
2022/03/16 01:24:29;;;;;;;10.63;7.53;;;4.30;81.30;;;;;;5054566;28;20489;-79
2022/03/16 01:26:55;;;;;;;16.23;7.72;;;4.30;81.30;;;;;;5055240;28;20504;-78
2022/03/16 01:29:20;;;;;;;14.77;7.97;;;4.30;81.40;;;;;;5055781;28;20057;-79
2022/03/16 01:31:46;;;;;;;12.35;7.60;;;4.30;81.40;;;;;;5052890;28;20030;-78
2022/03/16 01:34:12;;;;;;;16.17;8.02;;;4.30;81.50;;;;;;5037122;28;20106;-78
2022/03/16 01:36:38;;;;;;;16.60;9.13;;;4.30;81.50;;;;;;5031901;28;20033;-78
2022/03/16 01:39:04;;;;;;;16.92;9.20;;;4.30;81.60;;;;;;5061625;28;20124;-79
2022/03/16 01:41:30;;;;;;;14.80;8.65;;;4.20;81.60;;;;;;5060481;28;20033;-78
2022/03/16 01:43:56;;;;;;;14.90;8.18;;;4.20;81.60;;;;;;5060261;28;20105;-77
2022/03/16 01:46:21;;;;;;;16.10;8.13;;;4.20;81.70;;;;;;5054208;28;20063;-80
2022/03/16 01:48:47;;;;;;;16.77;8.45;;;4.20;81.70;;;;;;5052864;28;20042;-79
2022/03/16 01:51:13;;;;;;;19.75;9.48;;;4.20;81.80;;;;;;5049915;28;20041;-79
2022/03/16 01:53:40;;;;;;;18.30;9.48;;;4.20;81.80;;;;;;5040711;28;20093;-79
2022/03/16 01:56:06;;;;;;;22.55;9.60;;;4.20;81.90;;;;;;5057075;28;20049;-80
2022/03/16 01:58:31;;;;;;;16.70;8.88;;;4.20;81.90;;;;;;5031328;28;20040;-76
2022/03/16 02:00:57;;;;;;;15.32;8.25;;;4.20;81.90;;;;;;5040251;28;20071;-79
2022/03/16 02:03:22;;;;;;;14.13;7.30;;;4.20;81.90;;;;;;5022675;28;20033;-79
2022/03/16 02:05:48;;;;;;;13.43;8.55;;;4.20;82.00;;;;;;5043448;28;20037;-78
2022/03/16 02:08:14;;;;;;;13.13;7.68;;;4.20;82.10;;;;;;5068244;28;20045;-78
2022/03/16 02:10:40;;;;;;;16.73;7.20;;;4.20;82.10;;;;;;5059205;28;20036;-78
2022/03/16 02:13:08;;;;;;;10.07;6.68;;;4.20;82.10;;;;;;5031184;28;20048;-78
2022/03/16 02:15:34;;;;;;;10.73;7.07;;;4.10;82.20;;;;;;5055524;28;20032;-76
2022/03/16 02:18:00;;;;;;;11.65;7.22;;;4.10;82.20;;;;;;5045625;28;20033;-79
2022/03/16 02:20:27;;;;;;;9.75;6.53;;;4.10;82.20;;;;;;5041031;28;20063;-79
2022/03/16 02:22:55;;;;;;;14.70;7.00;;;4.10;82.20;;;;;;5043869;28;20025;-79
2022/03/16 02:25:22;;;;;;;9.13;6.57;;;4.10;82.30;;;;;;5062622;28;20035;-78
2022/03/16 02:27:47;;;;;;;10.77;6.90;;;4.10;82.20;;;;;;5041148;28;20497;-79
2022/03/16 02:30:13;;;;;;;8.50;5.68;;;4.10;82.30;;;;;;5041248;28;20041;-78
2022/03/16 02:32:38;;;;;;;9.57;6.20;;;4.10;82.40;;;;;;5057700;28;20214;-78
2022/03/16 02:35:04;;;;;;;9.90;7.07;;;4.10;82.40;;;;;;5050844;28;20047;-79
2022/03/16 02:37:30;;;;;;;10.27;6.97;;;4.10;82.40;;;;;;5059410;28;20037;-78
2022/03/16 02:39:55;;;;;;;12.23;7.53;;;4.10;82.40;;;;;;5052611;28;20036;-78
2022/03/16 02:42:22;;;;;;;15.43;7.90;;;4.10;82.40;;;;;;5037698;28;20033;-78
2022/03/16 02:44:48;;;;;;;10.40;6.90;;;4.10;82.50;;;;;;5017052;28;20029;-78
2022/03/16 02:47:13;;;;;;;10.05;6.80;;;4.10;83.20;;;;;;5060322;28;20035;-78
2022/03/16 02:49:40;;;;;;;9.48;6.45;;;4.10;82.50;;;;;;5026925;28;20049;-77
2022/03/16 02:52:09;;;;;;;7.00;5.55;;;4.10;82.50;;;;;;5031558;28;20078;-77
2022/03/16 02:54:35;;;;;;;7.68;6.05;;;4.10;82.50;;;;;;5052039;28;20030;-78
2022/03/16 02:57:01;;;;;;;9.77;5.78;;;4.10;82.50;;;;;;5052867;28;20037;-78
2022/03/16 02:59:27;;;;;;;8.07;5.95;;;4.10;82.50;;;;;;5020709;28;20823;-78
2022/03/16 03:01:52;;;;;;;7.57;5.93;;;4.10;82.50;;;;;;5058552;28;20037;-77
2022/03/16 03:04:18;;;;;;;7.47;5.60;;;4.00;82.50;;;;;;5063126;28;20304;-78
2022/03/16 03:06:43;;;;;;;6.90;5.25;;;4.10;82.60;;;;;;5045851;28;20064;-77
2022/03/16 03:09:09;;;;;;;6.82;5.82;;;4.00;82.50;;;;;;5047800;28;20045;-77
2022/03/16 03:11:34;;;;;;;6.82;5.60;;;4.00;82.40;;;;;;5040796;28;20070;-78
2022/03/16 03:14:00;;;;;;;6.20;5.00;;;4.00;82.40;;;;;;5055438;28;20037;-78
2022/03/16 03:16:25;;;;;;;8.48;5.53;;;4.00;82.40;;;;;;5053852;28;20029;-79
2022/03/16 03:18:51;;;;;;;8.38;6.00;;;4.00;82.40;;;;;;5038531;28;20036;-77
2022/03/16 03:21:16;;;;;;;8.45;5.38;;;4.00;82.40;;;;;;5039754;28;20025;-79
2022/03/16 03:23:42;;;;;;;8.35;6.10;;;4.00;82.40;;;;;;5046841;28;20053;-77
2022/03/16 03:26:07;;;;;;;6.32;5.38;;;4.00;82.50;;;;;;5055446;28;20037;-78
2022/03/16 03:28:33;;;;;;;7.70;6.03;;;4.00;82.50;;;;;;5041871;28;20131;-78
2022/03/16 03:30:58;;;;;;;7.75;5.43;;;4.00;82.40;;;;;;5055809;28;20045;-78
2022/03/16 03:33:24;;;;;;;7.43;5.70;;;4.00;82.50;;;;;;5034452;28;20056;-76
2022/03/16 03:35:49;;;;;;;8.43;6.03;;;4.00;82.50;;;;;;5044154;28;20108;-77
2022/03/16 03:38:16;;;;;;;6.53;5.50;;;4.00;82.40;;;;;;5034511;28;20083;-78
2022/03/16 03:40:42;;;;;;;9.50;6.13;;;4.00;82.40;;;;;;5040258;28;20085;-77
2022/03/16 03:43:07;;;;;;;8.85;5.85;;;4.00;82.40;;;;;;5050603;28;20043;-78
2022/03/16 03:45:33;;;;;;;8.43;5.95;;;4.00;82.40;;;;;;5040558;28;20025;-78
2022/03/16 03:47:58;;;;;;;7.90;5.80;;;4.00;82.40;;;;;;5056184;28;20119;-77
2022/03/16 03:50:24;;;;;;;8.88;6.20;;;4.00;82.40;;;;;;5052248;28;20056;-77
2022/03/16 03:52:49;;;;;;;7.28;5.30;;;4.00;82.40;;;;;;5028561;28;20032;-78
2022/03/16 03:55:15;;;;;;;8.27;5.90;;;4.00;82.40;;;;;;5034417;28;20032;-78
2022/03/16 03:57:40;;;;;;;7.85;6.15;;;4.00;82.50;;;;;;5041943;28;20052;-78
2022/03/16 04:00:07;;;;;;;9.43;6.22;;;4.00;82.40;;;;;;5030906;28;20033;-78
2022/03/16 04:02:32;;;;;;;9.43;5.82;;;4.00;82.50;;;;;;5044892;28;20044;-79
2022/03/16 04:04:58;;;;;;;8.15;5.70;;;4.00;82.40;;;;;;5043893;28;20115;-78
2022/03/16 04:07:23;;;;;;;9.10;6.47;;;4.00;82.50;;;;;;5030318;28;20132;-77
2022/03/16 04:09:50;;;;;;;9.25;6.15;;;4.00;82.50;;;;;;5045071;28;20056;-78
2022/03/16 04:12:17;;;;;;;9.38;6.57;;;4.00;82.50;;;;;;5011297;28;20059;-78
2022/03/16 04:14:42;;;;;;;9.43;5.90;;;4.00;82.50;;;;;;5038229;28;20044;-78
2022/03/16 04:17:08;;;;;;;12.25;6.80;;;4.00;82.50;;;;;;5051135;28;20041;-78
2022/03/16 04:19:33;;;;;;;11.68;6.70;;;4.00;82.50;;;;;;5033430;28;20043;-77
2022/03/16 04:21:59;;;;;;;22.48;6.80;;;4.00;82.50;;;;;;5049464;28;20105;-76
2022/03/16 04:24:25;;;;;;;8.93;6.13;;;4.00;82.50;;;;;;5034375;28;20144;-77
2022/03/16 04:26:50;;;;;;;7.55;5.57;;;4.00;82.50;;;;;;5035776;28;20029;-77
2022/03/16 04:29:16;;;;;;;10.65;5.97;;;3.90;82.50;;;;;;5043347;28;20115;-77
2022/03/16 04:31:41;;;;;;;11.70;6.57;;;3.90;82.50;;;;;;5048298;28;20350;-77
2022/03/16 04:34:07;;;;;;;13.02;7.07;;;3.90;82.50;;;;;;5017029;28;20699;-77
2022/03/16 04:36:32;;;;;;;9.38;6.47;;;3.90;82.50;;;;;;5033683;28;20048;-77
2022/03/16 04:38:58;;;;;;;11.50;6.57;;;3.90;82.60;;;;;;5045591;28;20028;-77
2022/03/16 04:41:23;;;;;;;12.68;7.18;;;3.90;82.60;;;;;;5047691;28;20025;-78
2022/03/16 04:43:49;;;;;;;13.05;7.05;;;4.00;82.70;;;;;;5032346;28;20028;-78
2022/03/16 04:46:14;;;;;;;22.95;7.78;;;3.90;82.70;;;;;;5054397;28;20037;-77
2022/03/16 04:48:40;;;;;;;12.38;6.38;;;3.90;82.60;;;;;;5051655;28;20051;-79
2022/03/16 04:51:06;;;;;;;9.80;6.45;;;3.90;82.70;;;;;;5025261;28;20100;-78
2022/03/16 04:53:31;;;;;;;12.60;7.00;;;3.90;82.70;;;;;;5050682;28;20056;-77
2022/03/16 04:55:57;;;;;;;11.00;6.57;;;3.90;82.70;;;;;;5036599;28;20045;-77
2022/03/16 04:58:22;;;;;;;12.23;6.95;;;3.90;82.70;;;;;;5041936;28;20095;-77
2022/03/16 05:00:48;;;;;;;10.35;6.53;;;3.90;82.70;;;;;;5044503;28;20036;-79
2022/03/16 05:03:14;;;;;;;14.15;7.25;;;3.90;82.70;;;;;;5049727;28;20113;-78
2022/03/16 05:05:39;;;;;;;12.10;6.68;;;3.90;82.70;;;;;;5043504;28;20029;-77
2022/03/16 05:08:05;;;;;;;11.45;6.32;;;3.80;82.60;;;;;;5035255;28;20040;-77
2022/03/16 05:10:31;;;;;;;9.85;6.03;;;3.80;83.40;;;;;;5042972;28;20033;-78
2022/03/16 05:12:56;;;;;;;14.18;7.35;;;3.80;82.60;;;;;;5010339;28;20091;-78
2022/03/16 05:15:22;;;;;;;13.88;7.10;;;3.80;82.60;;;;;;5048295;28;20040;-78
2022/03/16 05:17:47;;;;;;;13.13;7.70;;;3.80;82.60;;;;;;5029811;28;20033;-79
2022/03/16 05:20:13;;;;;;;13.13;7.18;;;3.80;82.70;;;;;;5022339;28;20036;-78
2022/03/16 05:22:42;;;;;;;10.30;6.47;;;3.80;82.80;;;;;;5014639;28;20040;-76
2022/03/16 05:25:09;;;;;;;12.88;7.35;;;3.80;82.80;;;;;;5060073;28;20566;-78
2022/03/16 05:27:35;;;;;;;12.45;7.30;;;3.80;82.60;;;;;;5042595;28;20102;-78
2022/03/16 05:30:00;;;;;;;13.48;7.55;;;3.80;82.60;;;;;;5038400;28;20730;-77
2022/03/16 05:32:26;;;;;;;14.85;7.25;;;3.80;82.60;;;;;;5013550;28;20071;-78
2022/03/16 05:34:51;;;;;;;11.60;7.55;;;3.80;82.60;;;;;;5024455;28;20101;-78
2022/03/16 05:37:17;;;;;;;14.65;8.07;;;3.80;82.60;;;;;;5035547;28;20819;-79
2022/03/16 05:39:43;;;;;;;16.48;8.73;;;3.80;82.60;;;;;;5048478;28;20055;-79
2022/03/16 05:42:08;;;;;;;22.73;8.13;;;3.80;82.70;;;;;;5033314;28;20056;-79
2022/03/16 05:44:34;;;;;;;14.85;8.07;;;3.80;82.70;;;;;;5024786;28;20754;-79
2022/03/16 05:46:59;;;;;;;16.50;9.40;;;3.70;82.60;;;;;;5043090;28;20598;-78
2022/03/16 05:49:28;;;;;;;21.45;11.50;;;3.70;82.70;;;;;;5038686;28;20086;-79
2022/03/16 05:51:54;;;;;;;15.48;8.88;;;3.80;82.70;;;;;;5043846;28;20033;-79
2022/03/16 05:54:19;;;;;;;22.67;8.20;;;3.70;82.60;;;;;;5026036;28;20045;-79
2022/03/16 05:56:45;;;;;;;14.00;7.78;;;3.70;82.70;;;;;;5029885;28;20034;-78
2022/03/16 05:59:10;;;;;;;12.45;7.07;;;3.70;82.70;;;;;;5046262;28;20040;-77
2022/03/16 06:01:36;;;;;;;15.50;7.70;;;3.70;82.70;;;;;;5021091;28;20030;-79
2022/03/16 06:04:01;;;;;;;14.30;7.03;;;3.70;82.80;;;;;;5014163;28;20042;-78
2022/03/16 06:06:29;;;;;;;15.63;8.07;;;3.70;82.80;;;;;;5026651;28;20037;-78
2022/03/16 06:08:55;;;;;;;18.15;8.88;;;3.70;82.80;;;;;;4993310;28;20038;-78
2022/03/16 06:11:20;;;;;;;16.83;9.75;;;3.70;82.90;;;;;;5042643;28;20040;-78
2022/03/16 06:13:46;;;;;;;21.00;10.60;;;3.70;82.90;;;;;;5041059;28;20040;-78
2022/03/16 06:16:11;;;;;;;23.73;11.27;;;3.70;82.90;;;;;;5040982;28;20037;-77
2022/03/16 06:18:37;;;;;;;31.95;14.65;;;3.70;82.90;;;;;;5021473;28;20521;-78
2022/03/16 06:21:02;;;;;;;33.90;14.93;;;3.70;82.90;;;;;;5016617;28;20108;-78
2022/03/16 06:23:28;;;;;;;32.72;15.27;;;3.70;82.90;;;;;;5016868;28;20588;-79
2022/03/16 06:25:53;;;;;;;32.60;16.08;;;3.70;82.90;;;;;;5017157;28;20589;-79
2022/03/16 06:28:19;;;;;;;29.13;14.32;;;3.80;83.00;;;;;;5024546;28;20492;-78
2022/03/16 06:30:44;;;;;;;27.90;13.93;;;3.80;83.00;;;;;;5006027;28;20096;-79
2022/03/16 06:33:10;;;;;;;25.00;13.10;;;3.80;83.00;;;;;;5003542;28;20129;-79
2022/03/16 06:35:36;;;;;;;19.65;11.60;;;3.80;83.00;;;;;;5022017;28;20108;-79
2022/03/16 06:38:01;;;;;;;20.13;10.57;;;3.80;83.10;;;;;;5038547;28;20029;-78
2022/03/16 06:40:27;;;;;;;16.42;9.93;;;3.80;83.00;;;;;;5024780;28;20025;-79
2022/03/16 06:42:54;;;;;;;16.90;9.38;;;3.80;83.00;;;;;;5021051;28;20033;-79
2022/03/16 06:45:20;;;;;;;17.83;10.07;;;3.80;83.00;;;;;;5041320;28;20036;-79
2022/03/16 06:47:45;;;;;;;17.98;9.77;;;3.80;83.00;;;;;;5036765;28;20033;-78
2022/03/16 06:50:11;;;;;;;17.02;9.80;;;3.90;83.10;;;;;;5017979;28;20312;-79
2022/03/16 06:52:39;;;;;;;16.02;9.02;;;3.90;83.00;;;;;;5015158;28;20539;-79
2022/03/16 06:55:04;;;;;;;14.18;8.52;;;3.90;83.10;;;;;;5038642;28;20052;-80
2022/03/16 06:57:30;;;;;;;16.02;8.40;;;3.90;83.10;;;;;;5005631;28;20105;-80
2022/03/16 06:59:55;;;;;;;15.13;8.63;;;3.90;83.20;;;;;;5037433;28;20436;-79
2022/03/16 07:02:21;;;;;;;13.05;7.90;;;3.90;83.20;;;;;;5043557;28;20047;-78
2022/03/16 07:04:47;;;;;;;11.48;7.20;;;4.00;83.20;;;;;;5030783;28;20086;-79
2022/03/16 07:07:12;;;;;;;32.20;8.35;;;4.00;83.30;;;;;;4996169;28;1203856;-78
2022/03/16 07:09:38;;;;;;;14.57;8.18;;;4.00;83.20;;;;;;5007079;28;20125;-79
2022/03/16 07:12:04;;;;;;;16.95;8.85;;;3.90;83.30;;;;;;5030179;28;20037;-78
2022/03/16 07:14:32;;;;;;;15.88;9.15;;;3.90;83.30;;;;;;5050984;28;20067;-79
2022/03/16 07:17:01;;;;;;;39.15;10.60;;;3.90;83.30;;;;;;5059084;28;20149;-78
2022/03/16 07:19:28;;;;;;;20.23;9.80;;;4.00;83.40;;;;;;5021242;28;20419;-77
2022/03/16 07:21:54;;;;;;;17.77;9.45;;;4.00;83.40;;;;;;5050864;28;20028;-78
2022/03/16 07:24:19;;;;;;;23.90;13.40;;;4.00;83.50;;;;;;5048558;28;20032;-78
2022/03/16 07:26:45;;;;;;;21.08;11.75;;;4.00;83.50;;;;;;5033866;28;20034;-79
2022/03/16 07:29:10;;;;;;;17.83;11.07;;;4.00;83.60;;;;;;5024370;28;20533;-78
2022/03/16 07:31:36;;;;;;;20.60;9.75;;;4.00;83.60;;;;;;5013344;28;20033;-79
2022/03/16 07:34:01;;;;;;;19.17;10.10;;;4.10;83.60;;;;;;5010089;28;20507;-79
2022/03/16 07:36:27;;;;;;;18.52;10.18;;;4.10;83.60;;;;;;5040609;28;20885;-77
2022/03/16 07:38:53;;;;;;;18.55;10.23;;;4.10;83.60;;;;;;5043163;28;20025;-79
2022/03/16 07:41:19;;;;;;;20.42;10.45;;;4.20;83.60;;;;;;5028469;28;20127;-78
2022/03/16 07:43:44;;;;;;;19.08;10.43;;;4.20;83.60;;;;;;5015037;28;20048;-77
2022/03/16 07:46:10;;;;;;;21.23;11.15;;;4.30;83.60;;;;;;5022477;28;20048;-78
2022/03/16 07:48:37;;;;;;;20.73;11.38;;;4.30;83.60;;;;;;5028135;28;20041;-78
2022/03/16 07:51:03;;;;;;;23.45;11.95;;;4.30;83.50;;;;;;5002617;28;20453;-76
2022/03/16 07:53:28;;;;;;;23.55;11.70;;;4.30;83.50;;;;;;5033434;28;20039;-78
2022/03/16 07:55:56;;;;;;;33.33;12.98;;;4.40;83.60;;;;;;5041572;28;20095;-78
2022/03/16 07:58:22;;;;;;;23.65;12.30;;;4.40;83.60;;;;;;5036443;28;20045;-77
2022/03/16 08:00:47;;;;;;;19.65;11.18;;;4.50;83.70;;;;;;5054681;28;20117;-77
2022/03/16 08:03:13;;;;;;;23.02;11.90;;;4.50;83.70;;;;;;5011902;28;20040;-78
2022/03/16 08:05:39;;;;;;;20.83;10.85;;;4.50;84.60;;;;;;5007649;28;20113;-79
2022/03/16 08:08:05;;;;;;;19.25;10.18;;;4.60;83.90;;;;;;5028661;28;20502;-77
2022/03/16 08:10:30;;;;;;;18.63;10.50;;;4.60;83.80;;;;;;5046844;28;20708;-77
2022/03/16 08:12:56;;;;;;;23.40;12.25;;;4.60;83.80;;;;;;5045604;28;20057;-77
2022/03/16 08:15:22;;;;;;;22.30;11.98;;;4.70;83.90;;;;;;5038703;28;20036;-77
2022/03/16 08:17:47;;;;;;;24.50;11.75;;;4.70;83.90;;;;;;5047126;28;20040;-77
2022/03/16 08:20:13;;;;;;;32.28;13.82;;;4.80;83.80;;;;;;5049283;28;20025;-77
2022/03/16 08:22:38;;;;;;;34.63;15.90;;;4.80;83.90;;;;;;5032866;28;20112;-78
2022/03/16 08:25:06;;;;;;;31.40;15.45;;;4.90;84.60;;;;;;5046294;28;20021;-77
2022/03/16 08:27:31;;;;;;;28.40;14.60;;;4.90;83.80;;;;;;5027956;28;20049;-78
2022/03/16 08:29:57;;;;;;;27.48;14.27;;;5.00;83.90;;;;;;5028524;28;20140;-80
2022/03/16 08:32:22;;;;;;;20.42;12.32;;;5.10;83.90;;;;;;5047393;28;20037;-79
2022/03/16 08:34:48;;;;;;;21.88;12.35;;;5.10;83.90;;;;;;5046902;28;20045;-79
2022/03/16 08:37:14;;;;;;;24.88;13.07;;;5.20;83.90;;;;;;5036817;28;20098;-79
2022/03/16 08:39:40;;;;;;;23.98;13.10;;;5.30;84.00;;;;;;5037050;28;20111;-80
2022/03/16 08:42:06;;;;;;;27.05;13.70;;;5.30;84.00;;;;;;5045965;28;20092;-78
2022/03/16 08:44:32;;;;;;;25.75;15.00;;;5.40;84.00;;;;;;5045862;28;20098;-77
2022/03/16 08:46:57;;;;;;;28.45;15.88;;;5.50;84.00;;;;;;5046795;28;20045;-79
2022/03/16 08:49:23;;;;;;;29.20;15.00;;;5.60;84.10;;;;;;5025739;28;20083;-79
2022/03/16 08:51:48;;;;;;;30.92;15.48;;;5.60;84.00;;;;;;5036446;28;20029;-78
2022/03/16 08:54:14;;;;;;;35.58;17.15;;;5.70;84.00;;;;;;5032936;28;20029;-78
2022/03/16 08:56:39;;;;;;;32.67;16.83;;;5.80;84.00;;;;;;5007017;28;20041;-78
2022/03/16 08:59:06;;;;;;;35.10;18.00;;;5.80;84.00;;;;;;5039403;28;20035;-78
2022/03/16 09:01:32;;;;;;;37.63;19.73;;;5.90;84.00;;;;;;5046299;28;20037;-77
2022/03/16 09:03:57;;;;;;;34.53;16.90;;;6.00;83.90;;;;;;5041389;28;20033;-78
2022/03/16 09:06:23;;;;;;;41.78;18.40;;;6.10;83.90;;;;;;5040758;28;20080;-79
2022/03/16 09:08:48;;;;;;;35.55;18.17;;;6.10;83.80;;;;;;5038374;28;20114;-78
2022/03/16 09:11:14;;;;;;;36.17;17.63;;;6.20;83.80;;;;;;5042238;28;20099;-78
2022/03/16 09:13:39;;;;;;;31.70;16.92;;;6.30;83.90;;;;;;5040156;28;20082;-78
2022/03/16 09:16:06;;;;;;;35.00;18.60;;;6.40;83.90;;;;;;5034165;28;20099;-78
2022/03/16 09:18:32;;;;;;;33.97;17.10;;;6.50;83.50;;;;;;5030464;28;20022;-78
2022/03/16 09:20:59;;;;;;;36.53;17.52;;;6.60;83.80;;;;;;5018545;28;20029;-78
2022/03/16 09:23:31;;;;;;;31.55;17.42;;;6.60;83.70;;;;;;5039861;28;20029;-78
2022/03/16 09:26:00;;;;;;;28.48;15.90;;;6.70;83.70;;;;;;5032020;28;20653;-77
2022/03/16 09:28:26;;;;;;;25.05;13.80;;;6.80;83.70;;;;;;5038728;28;20041;-77
2022/03/16 09:30:52;;;;;;;22.95;13.43;;;6.90;83.70;;;;;;5036241;28;20082;-78
2022/03/16 09:33:18;;;;;;;30.67;15.98;;;7.00;83.70;;;;;;5020422;28;20040;-79
2022/03/16 09:35:44;;;;;;;28.92;16.40;;;7.20;83.80;;;;;;5043398;28;20436;-78
2022/03/16 09:38:10;;;;;;;33.70;17.13;;;7.30;83.60;;;;;;5043827;28;20119;-78
2022/03/16 09:40:36;;;;;;;30.92;16.27;;;7.40;83.50;;;;;;5040264;28;20538;-79
2022/03/16 09:43:05;;;;;;;31.33;15.57;;;7.50;83.50;;;;;;5060696;28;20043;-78
2022/03/16 09:45:30;;;;;;;29.13;15.52;;;7.60;83.50;;;;;;5003032;28;20041;-77
2022/03/16 09:47:56;;;;;;;25.65;13.77;;;7.80;83.40;;;;;;5043969;28;20037;-78
2022/03/16 09:50:22;;;;;;;24.30;13.63;;;7.90;83.40;;;;;;5035632;28;20048;-78
2022/03/16 09:52:47;;;;;;;23.02;12.68;;;8.10;83.40;;;;;;5036339;28;20044;-78
2022/03/16 09:55:14;;;;;;;20.05;11.02;;;8.30;83.30;;;;;;5042791;28;20151;-78
2022/03/16 09:57:41;;;;;;;20.55;11.70;;;8.40;83.10;;;;;;5042207;28;20089;-78
2022/03/16 10:00:09;;;;;;;21.92;12.77;;;8.60;83.00;;;;;;5022703;28;20030;-78
2022/03/16 10:02:35;;;;;;;25.35;14.32;;;8.80;83.00;;;;;;5039389;28;20554;-79
2022/03/16 10:05:00;;;;;;;23.85;13.00;;;9.10;82.80;;;;;;5038916;28;20090;-80
2022/03/16 10:07:29;;;;;;;20.65;11.93;;;9.30;82.70;;;;;;5019018;28;20611;-78
2022/03/16 10:15:23;;;;;;;21.33;10.68;;;9.90;82.10;;;;;;5040141;28;20077;-79
2022/03/16 10:17:52;;;;;;;18.90;11.57;;;10.10;81.80;;;;;;5043005;28;20533;-79
2022/03/16 10:20:21;;;;;;;15.80;10.80;;;10.30;81.70;;;;;;5031797;28;20756;-79
2022/03/16 10:23:24;;;;;;;15.75;10.75;;;10.50;81.40;;;;;;5047505;28;20043;-79
2022/03/16 10:25:52;;;;;;;18.58;11.13;;;10.80;81.20;;;;;;5041999;28;20052;-79
2022/03/16 10:28:22;;;;;;;17.98;11.20;;;11.00;80.80;;;;;;5039735;28;20074;-79
2022/03/16 10:30:57;;;;;;;15.15;11.02;;;11.10;80.30;;;;;;5033706;28;20025;-79
2022/03/16 10:33:24;;;;;;;16.45;10.57;;;11.30;80.10;;;;;;5053659;28;20029;-79
2022/03/16 10:36:06;;;;;;;17.25;10.65;;;11.40;79.80;;;;;;5037264;28;20037;-79
2022/03/16 10:38:45;;;;;;;16.58;9.82;;;11.60;79.30;;;;;;4969539;28;20029;-79
2022/03/16 10:46:49;;;;;;;16.05;9.88;;;12.00;78.80;;;;;;5043934;28;20055;-79
2022/03/16 10:49:20;;;;;;;15.25;10.45;;;12.20;78.50;;;;;;5045546;28;20409;-80
2022/03/16 10:51:46;;;;;;;15.68;9.82;;;12.30;78.20;;;;;;5024498;28;20037;-80
2022/03/16 10:54:15;;;;;;;16.58;9.80;;;12.50;78.00;;;;;;5029642;28;20106;-78
2022/03/16 10:56:41;;;;;;;11.93;8.98;;;12.70;77.70;;;;;;5046885;28;20033;-79
2022/03/16 10:59:07;;;;;;;14.27;9.43;;;12.80;77.30;;;;;;5022629;28;20425;-79
2022/03/16 11:01:35;;;;;;;12.95;8.77;;;13.00;77.10;;;;;;5044863;28;20064;-80
2022/03/16 11:04:01;;;;;;;14.68;10.57;;;13.20;76.80;;;;;;5035292;28;20016;-79
2022/03/16 11:06:27;;;;;;;15.50;10.40;;;13.30;76.40;;;;;;5024511;28;20085;-79
2022/03/16 11:08:53;;;;;;;14.70;10.43;;;13.50;76.00;;;;;;5023421;28;20051;-78
2022/03/16 11:14:04;;;;;;;17.02;10.95;;;13.80;75.10;;;;;;5034804;28;20040;-79
2022/03/16 11:16:30;;;;;;;13.95;9.77;;;13.80;74.50;;;;;;5051477;28;20033;-79
2022/03/16 11:18:58;;;;;;;17.75;11.00;;;13.90;74.30;;;;;;5036999;28;20044;-80
2022/03/16 11:21:28;;;;;;;17.20;10.82;;;14.10;74.20;;;;;;5041358;28;20033;-79
2022/03/16 11:27:10;;;;;;;15.90;10.85;;;14.50;73.60;;;;;;5043810;28;20050;-79
2022/03/16 11:29:52;;;;;;;16.80;10.25;;;14.80;72.90;;;;;;5038496;28;20044;-80
2022/03/16 11:32:18;;;;;;;17.88;10.95;;;14.90;72.20;;;;;;5021203;28;20630;-80
2022/03/16 11:34:58;;;;;;;14.07;10.40;;;15.10;72.10;;;;;;5009483;28;20427;-79
2022/03/16 11:37:34;;;;;;;14.82;10.55;;;15.20;71.50;;;;;;5023912;28;20047;-80
2022/03/16 11:40:16;;;;;;;14.52;10.05;;;15.40;70.80;;;;;;5022632;28;20612;-80
2022/03/16 11:43:04;;;;;;;;;;;15.50;70.70;;;;;;5041694;28;20033;-80
2022/03/16 11:45:35;;;;;;;14.43;10.55;;;15.70;70.70;;;;;;5039055;28;19963;-80
2022/03/16 11:48:36;;;;;;;15.70;11.15;;;15.90;70.30;;;;;;5032663;28;20090;-80
2022/03/16 11:51:16;;;;;;;14.77;10.95;;;16.10;68.80;;;;;;5037715;28;20152;-80
2022/03/16 11:53:48;;;;;;;13.88;10.18;;;16.20;68.30;;;;;;5030213;28;20036;-80
2022/03/16 11:56:35;;;;;;;16.10;10.90;;;16.20;68.10;;;;;;5037090;28;20597;-79
2022/03/16 11:59:02;;;;;;;16.70;10.35;;;16.40;67.40;;;;;;5035232;28;20054;-79
2022/03/16 12:01:28;;;;;;;15.25;10.80;;;16.50;67.70;;;;;;5014032;28;20032;-79
2022/03/16 12:04:11;;;;;;;14.52;9.85;;;16.70;67.30;;;;;;5043421;28;20029;-80
2022/03/16 12:06:51;;;;;;;12.50;9.57;;;16.80;66.60;;;;;;5037401;28;20095;-79
2022/03/16 12:09:40;;;;;;;12.65;9.57;;;16.80;65.80;;;;;;5013387;28;20071;-80
2022/03/16 12:15:05;;;;;;;18.15;11.32;;;17.10;65.60;;;;;;5035919;28;20102;-79
2022/03/16 12:17:32;;;;;;;20.40;11.77;;;17.30;64.80;;;;;;5039818;28;20119;-79
2022/03/16 12:20:15;;;;;;;14.77;11.43;;;17.40;64.30;;;;;;5027125;28;20037;-80
2022/03/16 12:22:47;;;;;;;14.95;10.75;;;17.40;63.00;;;;;;5036664;28;20618;-80
2022/03/16 12:25:26;;;;;;;14.10;9.45;;;17.50;63.20;;;;;;5038008;28;20654;-79
2022/03/16 12:30:48;;;;;;;15.23;11.20;;;17.60;62.50;;;;;;5044461;28;20210;-80
2022/03/16 12:33:19;;;;;;;11.65;9.70;;;17.60;62.70;;;;;;5021646;28;20029;-79
2022/03/16 12:35:45;;;;;;;16.50;9.57;;;17.60;62.20;;;;;;5041248;28;20761;-79
2022/03/16 12:38:11;;;;;;;15.25;11.57;;;17.70;61.90;;;;;;5041304;28;20102;-80
2022/03/16 12:42:31;;;;;;;13.95;9.70;;;17.70;61.60;;;;;;5040986;28;20243;-80
2022/03/16 12:43:27;;;;;;;13.50;10.20;;;17.80;61.30;;;;;;5022247;28;20324;-79
2022/03/16 12:45:59;;;;;;;11.63;9.40;;;17.90;61.10;;;;;;5025364;28;20099;-79
2022/03/16 12:48:24;;;;;;;13.70;9.48;;;18.00;60.70;;;;;;5049207;28;20070;-79
2022/03/16 12:50:51;;;;;;;12.98;9.80;;;18.10;60.70;;;;;;5039772;28;20037;-80
2022/03/16 12:53:45;;;;;;;14.35;10.63;;;18.30;60.40;;;;;;5038586;28;20028;-80
2022/03/16 12:56:17;;;;;;;14.23;10.50;;;18.30;59.30;;;;;;5003403;28;20040;-80
2022/03/16 12:58:43;;;;;;;;;;;18.40;59.50;;;;;;5033563;28;20129;-79
2022/03/16 13:01:18;;;;;;;16.17;11.45;;;18.50;59.70;;;;;;5037500;28;19975;-79
2022/03/16 13:03:44;;;;;;;14.43;11.30;;;18.50;59.00;;;;;;5021208;28;20064;-80
2022/03/16 13:06:20;;;;;;;14.98;11.40;;;18.50;59.40;;;;;;5015009;28;20064;-80